Flight Track Log - Related Links

Times and Time Zones

All times are in EDT time to prevent confusion due to time zone crossing. See the DAL3926 flight status page for this flight to view local times or setup timezone preferences in your user account.

Time Position Orientation Groundspeed Altitude Reporting Facility
EDT Latitude Longitude Course Direction KTS MPH feet Rate Location/Type
Wed 12:32:11 PM 44.8700 -93.1642 101° East 145 167 3,100  Level Minneapolis Center
Wed 12:32:27 PM 44.8675 -93.1464 101° East 172 198 4,100 2,333 Climbing FAA TRACON SMA TRACON (SMA)
Wed 12:32:47 PM 44.8642 -93.1242 102° East 186 214 4,500 1,692 Climbing FAA TRACON SMA TRACON (SMA)
Wed 12:33:06 PM 44.8594 -93.0886 101° East 230 265 5,200 2,250 Climbing FAA TRACON SMA TRACON (SMA)
Wed 12:33:27 PM 44.8633 -93.0600 79° East 253 291 6,000 2,341 Climbing FAA TRACON SMA TRACON (SMA)
Wed 12:33:47 PM 44.8800 -93.0403 40° Northeast 266 306 6,800 2,488 Climbing FAA TRACON SMA TRACON (SMA)
Wed 12:34:08 PM 44.9100 -93.0361 North 282 325 7,700 2,550 Climbing FAA TRACON SMA TRACON (SMA)
Wed 12:34:27 PM 44.9344 -93.0369 359° North 286 329 8,500 2,462 Climbing FAA TRACON SMA TRACON (SMA)
Wed 12:34:47 PM 44.9600 -93.0381 358° North 293 337 9,300 2,341 Climbing FAA TRACON SMA TRACON (SMA)
Wed 12:35:08 PM 44.9919 -93.0383 360° North 298 343 10,100 1,902 Climbing FAA TRACON SMA TRACON (SMA)
Wed 12:35:28 PM 45.0186 -93.0378 North 308 354 10,600 1,500 Climbing FAA TRACON SMA TRACON (SMA)
Wed 12:35:48 PM 45.0536 -93.0364 North 323 372 11,100 1,500 Climbing FAA TRACON SMA TRACON (SMA)
Wed 12:36:08 PM 45.0822 -93.0342 North 332 382 11,600 1,500 Climbing FAA TRACON SMA TRACON (SMA)
Wed 12:36:28 PM 45.1117 -93.0314 North 343 395 12,100 1,800 Climbing FAA TRACON SMA TRACON (SMA)
Wed 12:36:48 PM 45.1503 -93.0281 North 358 412 12,800 1,950 Climbing FAA TRACON SMA TRACON (SMA)
Wed 12:37:08 PM 45.1814 -93.0247 North 363 418 13,400 1,846 Climbing FAA TRACON SMA TRACON (SMA)
Wed 12:37:27 PM 45.2131 -93.0206 North 369 425 14,000 2,136 Climbing FAA TRACON SMA TRACON (SMA)
Wed 12:38:07 PM 45.2814 -92.9867 19° North 376 433 15,500 2,100 Climbing FAA TRACON SMA TRACON (SMA)
Wed 12:38:27 PM 45.3119 -92.9711 20° North 377 434 16,100 1,950 Climbing FAA TRACON SMA TRACON (SMA)
Wed 12:38:47 PM 45.3500 -92.9519 19° North 378 435 16,800 1,171 Climbing FAA TRACON SMA TRACON (SMA)
Wed 12:39:08 PM 45.3814 -92.9369 19° North 384 442 16,900 146 Climbing FAA TRACON SMA TRACON (SMA)
Wed 12:39:28 PM 45.4142 -92.9211 19° North 397 457 16,900  Level FAA TRACON SMA TRACON (SMA)
Wed 12:39:48 PM 45.4556 -92.8997 20° North 411 473 16,900  Level FAA TRACON SMA TRACON (SMA)
Wed 12:40:08 PM 45.4897 -92.8822 20° North 420 483 16,900  Level FAA TRACON SMA TRACON (SMA)
Wed 12:40:31 PM 45.5242 -92.8656 19° North 425 489 16,900  Level FAA TRACON SMA TRACON (SMA)
Wed 12:40:51 PM 45.5672 -92.8456 18° North 423 487 16,900 -162 Level FAA TRACON SMA TRACON (SMA)
Wed 12:41:08 PM 45.6006 -92.8283 20° North 417 480 16,800  Descending FAA TRACON SMA TRACON (SMA)
Wed 12:41:28 PM 45.6333 -92.8114 20° North 409 471 16,900 150 Climbing FAA TRACON SMA TRACON (SMA)
Wed 12:41:48 PM 45.6747 -92.7922 18° North 405 466 16,900  Level FAA TRACON SMA TRACON (SMA)
Wed 12:42:08 PM 45.7064 -92.7742 22° Northeast 399 459 16,900  Level FAA TRACON SMA TRACON (SMA)
Wed 12:42:28 PM 45.7383 -92.7583 19° North 396 456 16,900  Level FAA TRACON SMA TRACON (SMA)
Wed 12:42:48 PM 45.7792 -92.7397 18° North 397 457 16,900  Level FAA TRACON SMA TRACON (SMA)
Wed 12:43:11 PM 45.8114 -92.7242 19° North 398 458 16,900 -58 Level FAA TRACON SMA TRACON (SMA)
Wed 12:44:31 PM 45.9375 -92.6544 21° North 397 457 16,800 -592 Descending Minneapolis Center
Wed 12:45:33 PM 46.0619 -92.5925 19° North 396 456 15,500 -1,645 Descending Minneapolis Center
Wed 12:46:35 PM 46.1589 -92.5417 20° North 377 434 13,400 -1,742 Descending Minneapolis Center
Wed 12:47:37 PM 46.2514 -92.5131 12° North 360 414 11,900 -1,220 Descending Minneapolis Center
Wed 12:48:38 PM 46.3167 -92.4972 10° North 321 369 10,900 -1,220 Descending Minneapolis Center
Wed 12:49:40 PM 46.4086 -92.4728 10° North 289 333 9,400 -1,258 Descending Minneapolis Center
Wed 12:50:42 PM 46.4861 -92.4536 10° North 285 328 8,300 -1,210 Descending Minneapolis Center
Wed 12:51:44 PM 46.5739 -92.4278 11° North 274 315 6,900 -1,258 Descending Minneapolis Center
Wed 12:52:46 PM 46.6414 -92.4097 10° North 262 302 5,700 -1,171 Descending Minneapolis Center
Wed 12:53:47 PM 46.7106 -92.3942 North 256 295 4,500 -1,171 Descending Minneapolis Center
Wed 12:54:49 PM 46.7758 -92.3767 10° North 250 288 3,300 -677 Descending Minneapolis Center
Wed 12:55:51 PM 46.8211 -92.3517 21° North 207 238 3,100 -242 Descending Minneapolis Center
Wed 12:56:53 PM 46.8403 -92.3094 56° Northeast 157 181 2,800 -585 Descending Minneapolis Center
Wed 12:57:54 PM 46.8450 -92.2550 83° East 143 165 1,900 -885 Descending Minneapolis Center
Wed 12:59:00 PM 46.8421 -92.1936 90° East  Level Estimated

Login

Don't have an account? Register now (free) for customized features, flight alerts, and more!